createdAt,value
2017-11-09T00:01:09.691Z,91.79
2017-11-09T00:03:35.800Z,91.41
2017-11-09T00:09:02.034Z,91.81
2017-11-09T00:11:28.578Z,91.82
2017-11-09T00:13:54.649Z,92.28
2017-11-09T00:16:20.747Z,92.27
2017-11-09T00:18:46.856Z,91.98
2017-11-09T00:21:12.950Z,92.03
2017-11-09T00:23:39.492Z,92.50
2017-11-09T00:26:05.577Z,92.65
2017-11-09T00:28:31.683Z,92.69
2017-11-09T00:30:57.775Z,92.56
2017-11-09T00:33:23.951Z,92.80
2017-11-09T00:35:50.411Z,92.87
2017-11-09T00:38:16.494Z,92.97
2017-11-09T00:40:42.576Z,92.17
2017-11-09T00:43:08.671Z,91.95
2017-11-09T00:45:34.759Z,92.91
2017-11-09T00:48:01.309Z,93.91
2017-11-09T00:50:27.401Z,94.83
2017-11-09T00:52:53.458Z,95.30
2017-11-09T00:55:19.557Z,95.30
2017-11-09T00:57:45.671Z,95.61
2017-11-09T01:00:12.119Z,95.76
2017-11-09T01:02:38.220Z,95.70
2017-11-09T01:05:04.482Z,95.58
2017-11-09T01:07:31.035Z,95.09
2017-11-09T01:09:57.099Z,94.37
2017-11-09T01:12:23.180Z,94.30
2017-11-09T01:14:49.258Z,94.17
2017-11-09T01:17:15.350Z,93.96
2017-11-09T01:19:41.880Z,94.42
2017-11-09T01:22:07.956Z,94.86
2017-11-09T01:24:34.112Z,95.03
2017-11-09T01:27:00.212Z,94.14
2017-11-09T01:29:26.222Z,93.01
2017-11-09T01:31:52.705Z,92.33
2017-11-09T01:34:18.804Z,92.91
2017-11-09T01:36:44.832Z,92.30
2017-11-09T01:39:10.925Z,92.28
2017-11-09T01:41:36.965Z,92.81
2017-11-09T01:44:03.431Z,92.59
2017-11-09T01:46:29.523Z,92.01
2017-11-09T01:48:55.619Z,92.21
2017-11-09T01:51:21.737Z,91.43
2017-11-09T01:53:47.897Z,91.46
2017-11-09T01:56:14.486Z,91.82
2017-11-09T01:58:40.565Z,91.53
2017-11-09T02:01:06.676Z,91.08
2017-11-09T02:03:32.713Z,91.69
2017-11-09T02:05:58.800Z,92.30
2017-11-09T02:08:25.255Z,92.93
2017-11-09T02:10:51.300Z,93.23
2017-11-09T02:13:17.333Z,93.50
2017-11-09T02:15:43.431Z,93.34
2017-11-09T02:18:09.475Z,92.91
2017-11-09T02:20:35.547Z,93.04
2017-11-09T02:23:01.604Z,93.08
2017-11-09T02:25:27.628Z,92.97
2017-11-09T02:27:53.695Z,93.02
2017-11-09T02:30:19.769Z,92.41
2017-11-09T02:32:46.203Z,92.66
2017-11-09T02:46:34.279Z,92.61
2017-11-09T02:49:00.776Z,92.78
2017-11-09T02:51:26.815Z,92.54
2017-11-09T02:53:52.847Z,93.05
2017-11-09T02:56:18.962Z,92.60
2017-11-09T02:58:45.024Z,92.44
2017-11-09T03:01:11.523Z,92.59
2017-11-09T03:03:37.573Z,92.73
2017-11-09T03:06:03.642Z,92.47
2017-11-09T03:08:30.096Z,93.13
2017-11-09T03:10:56.144Z,92.67
2017-11-09T03:13:22.229Z,92.24
2017-11-09T03:15:48.348Z,92.15
2017-11-09T03:18:14.438Z,92.46
2017-11-09T03:20:40.792Z,92.20
2017-11-09T03:23:06.859Z,92.72
2017-11-09T03:25:32.927Z,93.00
2017-11-09T03:27:59.006Z,92.76
2017-11-09T03:30:25.069Z,92.63
2017-11-09T03:32:51.481Z,93.11
2017-11-09T03:35:17.623Z,93.26
2017-11-09T03:37:43.708Z,92.63
2017-11-09T03:40:09.912Z,92.03
2017-11-09T03:42:35.988Z,92.25
2017-11-09T03:45:02.421Z,92.40
2017-11-09T03:47:28.512Z,92.59
2017-11-09T03:49:54.647Z,92.66
2017-11-09T03:52:20.728Z,92.84
2017-11-09T03:54:46.803Z,92.76
2017-11-09T03:57:13.272Z,92.30
2017-11-09T03:59:39.346Z,92.16
2017-11-09T04:02:05.468Z,92.13
2017-11-09T04:04:31.599Z,92.26
2017-11-09T04:06:57.687Z,92.42
2017-11-09T04:09:24.140Z,92.90
2017-11-09T04:11:50.219Z,92.91
2017-11-09T04:14:16.313Z,93.35
2017-11-09T04:16:42.791Z,93.30
2017-11-09T04:19:08.907Z,93.28
2017-11-09T04:21:35.038Z,92.98
2017-11-09T04:24:01.132Z,92.70
2017-11-09T04:26:27.221Z,92.75
2017-11-09T04:28:53.745Z,93.15
2017-11-09T04:31:19.853Z,93.37
2017-11-09T04:33:45.965Z,93.56
2017-11-09T04:36:12.053Z,93.31
2017-11-09T04:38:38.175Z,93.55
2017-11-09T04:41:04.596Z,93.54
2017-11-09T04:43:30.674Z,93.65
2017-11-09T04:45:56.779Z,93.59
2017-11-09T04:48:23.263Z,93.47
2017-11-09T04:50:49.331Z,93.32
2017-11-09T04:53:15.487Z,93.46
2017-11-09T04:55:41.638Z,93.75
2017-11-09T04:58:07.680Z,93.56
2017-11-09T05:00:34.136Z,93.21
2017-11-09T05:03:00.204Z,93.02
2017-11-09T05:05:26.311Z,93.19
2017-11-09T05:07:52.424Z,93.49
2017-11-09T05:10:18.488Z,93.27
2017-11-09T05:12:44.964Z,93.35
2017-11-09T05:15:11.041Z,93.14
2017-11-09T05:17:37.143Z,93.10
2017-11-09T05:20:03.440Z,92.88
2017-11-09T05:22:29.559Z,93.40
2017-11-09T05:24:56.004Z,93.06
2017-11-09T05:27:22.079Z,92.68
2017-11-09T05:29:48.185Z,92.70
2017-11-09T05:32:14.714Z,92.59
2017-11-09T05:34:40.808Z,92.68
2017-11-09T05:37:06.875Z,92.58
2017-11-09T05:39:33.303Z,92.70
2017-11-09T05:41:59.388Z,92.60
2017-11-09T05:44:25.457Z,92.67
2017-11-09T05:46:51.968Z,92.62
2017-11-09T05:49:18.047Z,92.74
2017-11-09T05:51:44.159Z,92.81
2017-11-09T05:54:10.567Z,92.88
2017-11-09T05:56:36.603Z,92.87
2017-11-09T05:59:02.653Z,93.02
2017-11-09T06:01:29.154Z,92.96
2017-11-09T06:03:55.530Z,92.95
2017-11-09T06:06:21.590Z,92.95
2017-11-09T06:08:48.044Z,93.02
2017-11-09T06:11:14.134Z,92.93
2017-11-09T06:13:40.171Z,92.92
2017-11-09T06:16:06.341Z,92.85
2017-11-09T06:18:32.450Z,92.85
2017-11-09T06:20:58.534Z,92.61
2017-11-09T06:23:25.008Z,92.59
2017-11-09T06:25:51.085Z,92.58
2017-11-09T06:28:17.167Z,92.76
2017-11-09T06:30:43.240Z,92.60
2017-11-09T06:33:09.316Z,92.64
2017-11-09T06:35:35.415Z,92.73
2017-11-09T06:38:01.877Z,92.89
2017-11-09T06:40:28.049Z,92.37
2017-11-09T06:42:54.180Z,92.66
2017-11-09T06:45:20.305Z,92.87
2017-11-09T06:47:46.462Z,93.64
2017-11-09T06:50:12.500Z,94.25
2017-11-09T06:52:38.950Z,94.92
2017-11-09T06:55:05.180Z,95.08
2017-11-09T06:57:31.287Z,95.24
2017-11-09T06:59:57.504Z,95.26
2017-11-09T07:02:23.555Z,95.57
2017-11-09T07:04:49.678Z,95.74
2017-11-09T07:07:16.136Z,95.94
2017-11-09T07:09:42.192Z,95.71
2017-11-09T07:12:08.279Z,95.61
2017-11-09T07:14:34.831Z,94.72
2017-11-09T07:17:00.920Z,94.75
2017-11-09T07:19:27.015Z,94.32
2017-11-09T07:21:53.412Z,93.23
2017-11-09T07:24:19.499Z,93.11
2017-11-09T07:26:45.623Z,92.23
2017-11-09T07:29:12.051Z,91.80
2017-11-09T07:31:38.272Z,92.07
2017-11-09T07:34:04.406Z,92.36
2017-11-09T07:36:30.908Z,91.94
2017-11-09T07:38:57.002Z,91.68
2017-11-09T07:41:23.119Z,91.40
2017-11-09T07:43:49.579Z,91.14
2017-11-09T07:46:15.691Z,91.82
2017-11-09T07:48:41.796Z,91.53
2017-11-09T07:51:08.285Z,91.78
2017-11-09T07:53:34.372Z,91.72
2017-11-09T07:56:00.512Z,92.05
2017-11-09T07:58:27.081Z,92.53
2017-11-09T08:00:53.144Z,91.94
2017-11-09T08:03:19.208Z,91.51
2017-11-09T08:05:45.691Z,91.65
2017-11-09T08:08:11.778Z,91.82
2017-11-09T08:10:37.866Z,91.86
2017-11-09T08:13:04.350Z,92.15
2017-11-09T08:15:30.437Z,91.40
2017-11-09T08:17:56.504Z,91.61
2017-11-09T08:20:22.947Z,91.89
2017-11-09T08:22:49.027Z,91.46
2017-11-09T08:25:18.071Z,91.87
2017-11-09T08:27:46.075Z,91.87
2017-11-09T08:30:14.354Z,92.09
2017-11-09T08:32:43.580Z,92.09
2017-11-09T08:35:09.645Z,92.11
2017-11-09T08:37:35.743Z,92.62
2017-11-09T08:40:02.193Z,92.67
2017-11-09T08:42:28.232Z,92.29
2017-11-09T08:44:54.464Z,92.03
2017-11-09T08:47:20.617Z,92.22
2017-11-09T08:49:46.723Z,91.81
2017-11-09T08:52:13.232Z,91.85
2017-11-09T08:54:39.313Z,92.07
2017-11-09T08:57:05.368Z,92.25
2017-11-09T08:59:31.497Z,91.91
2017-11-09T09:01:57.665Z,91.81
2017-11-09T09:04:24.179Z,92.43
2017-11-09T09:06:50.231Z,92.05
2017-11-09T09:09:16.340Z,92.01
2017-11-09T09:11:42.443Z,91.75
2017-11-09T09:14:08.553Z,91.22
2017-11-09T09:16:35.039Z,90.63
2017-11-09T09:19:01.173Z,90.70
2017-11-09T09:21:31.132Z,90.90
2017-11-09T09:23:58.120Z,90.98
2017-11-09T09:29:32.411Z,90.70
2017-11-09T09:31:58.920Z,90.01
2017-11-09T09:34:27.693Z,90.41
2017-11-09T09:36:55.412Z,90.25
2017-11-09T09:39:23.803Z,90.53
2017-11-09T09:41:49.927Z,90.37
2017-11-09T09:44:16.420Z,90.19
2017-11-09T09:46:42.559Z,90.00
2017-11-09T09:49:08.653Z,90.77
2017-11-09T09:51:35.323Z,91.03
2017-11-09T09:54:01.457Z,90.96
2017-11-09T09:56:27.544Z,90.67
2017-11-09T09:58:54.100Z,90.42
2017-11-09T10:01:20.244Z,90.66
2017-11-09T10:03:46.333Z,91.04
2017-11-09T10:06:12.464Z,91.00
2017-11-09T10:08:38.543Z,90.70
2017-11-09T10:11:05.071Z,90.78
2017-11-09T10:13:31.150Z,90.55
2017-11-09T10:15:57.303Z,90.39
2017-11-09T10:18:23.461Z,90.76
2017-11-09T10:20:49.561Z,90.70
2017-11-09T10:23:16.079Z,90.69
2017-11-09T10:25:42.143Z,90.58
2017-11-09T10:28:10.131Z,90.35
2017-11-09T10:30:36.244Z,90.66
2017-11-09T10:33:02.364Z,90.85
2017-11-09T10:35:28.867Z,90.72
2017-11-09T10:37:54.888Z,90.81
2017-11-09T10:40:20.949Z,91.38
2017-11-09T10:42:47.468Z,91.20
2017-11-09T10:45:13.593Z,92.08
2017-11-09T10:47:39.725Z,91.07
2017-11-09T10:50:05.808Z,90.97
2017-11-09T10:52:31.895Z,91.31
2017-11-09T10:54:58.303Z,91.40
2017-11-09T10:57:24.435Z,91.11
2017-11-09T10:59:50.526Z,90.50
2017-11-09T11:02:16.982Z,89.42
2017-11-09T11:04:43.045Z,89.18
2017-11-09T11:07:09.142Z,90.82
2017-11-09T11:09:35.588Z,92.29
2017-11-09T11:12:01.668Z,92.19
2017-11-09T11:14:27.745Z,91.23
2017-11-09T11:16:54.207Z,90.50
2017-11-09T11:19:20.272Z,90.12
2017-11-09T11:21:49.140Z,89.77
2017-11-09T11:24:15.594Z,89.82
2017-11-09T11:26:41.672Z,89.68
2017-11-09T11:29:07.706Z,89.96
2017-11-09T11:31:34.093Z,89.99
2017-11-09T11:34:00.188Z,89.82
2017-11-09T11:36:26.323Z,89.57
2017-11-09T11:38:52.458Z,89.71
2017-11-09T11:41:18.609Z,90.11
2017-11-09T11:43:45.147Z,89.43
2017-11-09T11:46:12.222Z,89.54
2017-11-09T11:48:38.464Z,90.01
2017-11-09T11:51:04.539Z,90.23
2017-11-09T11:53:30.721Z,89.39
2017-11-09T11:55:57.240Z,89.71
2017-11-09T11:58:23.318Z,88.89
2017-11-09T12:00:49.423Z,89.47
2017-11-09T12:03:15.507Z,89.05
2017-11-09T12:05:41.543Z,89.17
2017-11-09T12:08:07.980Z,89.14
2017-11-09T12:10:34.100Z,88.79
2017-11-09T12:13:00.189Z,89.19
2017-11-09T12:15:26.767Z,88.95
2017-11-09T12:17:52.874Z,88.97
2017-11-09T12:20:18.921Z,89.05
2017-11-09T12:22:45.049Z,88.94
2017-11-09T12:25:11.149Z,89.64
2017-11-09T12:27:37.609Z,89.92
2017-11-09T12:30:03.796Z,89.00
2017-11-09T12:32:29.869Z,89.39
2017-11-09T12:34:56.404Z,89.90
2017-11-09T12:37:22.555Z,88.79
2017-11-09T12:39:48.735Z,89.65
2017-11-09T12:42:15.211Z,89.93
2017-11-09T12:44:41.308Z,90.02
2017-11-09T12:47:07.388Z,90.56
2017-11-09T12:49:33.506Z,89.76
2017-11-09T12:51:59.611Z,89.32
2017-11-09T12:54:26.032Z,89.86
2017-11-09T12:56:52.195Z,90.18
2017-11-09T12:59:18.339Z,90.06
2017-11-09T13:01:44.818Z,90.84
2017-11-09T13:04:10.952Z,89.69
2017-11-09T13:06:37.107Z,89.84
2017-11-09T13:09:03.637Z,89.62
2017-11-09T13:11:29.724Z,90.32
2017-11-09T13:13:55.883Z,89.76
2017-11-09T13:16:22.408Z,89.86
2017-11-09T13:18:48.495Z,90.30
2017-11-09T13:21:14.687Z,89.82
2017-11-09T13:23:41.211Z,89.11
2017-11-09T13:26:07.327Z,88.00
2017-11-09T13:28:33.497Z,87.56
2017-11-09T13:30:59.655Z,88.41
2017-11-09T13:33:25.800Z,88.85
2017-11-09T13:35:52.355Z,89.27
2017-11-09T13:38:18.470Z,89.68
2017-11-09T13:40:44.644Z,90.15
2017-11-09T13:43:10.840Z,89.92
2017-11-09T13:45:39.952Z,88.33
2017-11-09T13:48:06.464Z,87.83
2017-11-09T13:50:32.556Z,87.84
2017-11-09T13:52:58.640Z,89.07
2017-11-09T13:55:24.768Z,89.42
2017-11-09T13:57:50.896Z,89.87
2017-11-09T14:00:17.439Z,89.91
2017-11-09T14:02:43.532Z,90.48
2017-11-09T14:05:09.608Z,90.87
2017-11-09T14:07:35.740Z,90.38
2017-11-09T14:10:01.886Z,90.33
2017-11-09T14:12:28.485Z,90.70
2017-11-09T14:14:54.575Z,90.66
2017-11-09T14:17:20.691Z,90.83
2017-11-09T14:19:46.805Z,91.34
2017-11-09T14:22:12.884Z,89.41
2017-11-09T14:24:39.284Z,88.76
2017-11-09T14:27:05.397Z,87.71
2017-11-09T14:29:31.479Z,88.07
2017-11-09T14:31:57.994Z,88.18
2017-11-09T14:34:24.101Z,88.84
2017-11-09T14:36:50.139Z,89.71
2017-11-09T14:39:16.684Z,90.25
2017-11-09T14:41:42.764Z,90.78
2017-11-09T14:44:08.864Z,90.20
2017-11-09T14:46:34.955Z,89.83
2017-11-09T14:49:01.068Z,89.78
2017-11-09T14:51:27.632Z,89.52
2017-11-09T14:53:53.764Z,90.67
2017-11-09T14:56:19.900Z,90.53
2017-11-09T14:58:46.039Z,90.26
2017-11-09T15:01:12.191Z,89.55
2017-11-09T15:03:38.571Z,89.10
2017-11-09T15:06:04.641Z,86.91
2017-11-09T15:08:30.860Z,87.80
2017-11-09T15:10:57.060Z,88.31
2017-11-09T15:13:23.091Z,87.79
2017-11-09T15:15:54.596Z,87.59
2017-11-09T15:18:20.690Z,87.73
2017-11-09T15:20:46.824Z,87.68
2017-11-09T15:23:13.334Z,87.92
2017-11-09T15:25:39.463Z,87.99
2017-11-09T15:28:05.591Z,88.05
2017-11-09T15:30:32.074Z,89.30
2017-11-09T15:32:58.271Z,90.72
2017-11-09T15:35:27.320Z,90.99
2017-11-09T15:37:53.435Z,89.69
2017-11-09T15:40:19.548Z,88.75
2017-11-09T15:42:45.941Z,88.28
2017-11-09T15:45:12.049Z,88.73
2017-11-09T15:47:38.069Z,89.33
2017-11-09T15:50:04.165Z,88.96
2017-11-09T15:52:30.229Z,89.07
2017-11-09T15:54:56.680Z,89.06
2017-11-09T15:57:22.701Z,88.71
2017-11-09T15:59:48.756Z,89.05
2017-11-09T16:02:14.843Z,89.02
2017-11-09T16:04:41.027Z,88.36
2017-11-09T16:07:17.395Z,88.73
2017-11-09T16:09:43.520Z,88.87
2017-11-09T16:12:12.062Z,89.42
2017-11-09T16:14:38.204Z,89.21
2017-11-09T16:17:04.355Z,90.92
2017-11-09T16:19:30.864Z,91.16
2017-11-09T16:21:57.042Z,91.12
2017-11-09T16:24:23.104Z,90.28
2017-11-09T16:26:49.192Z,89.71
2017-11-09T16:29:15.284Z,89.45
2017-11-09T16:31:42.022Z,88.47
2017-11-09T16:34:08.493Z,88.76
2017-11-09T16:36:34.829Z,89.13
2017-11-09T16:39:01.894Z,90.43
2017-11-09T16:41:28.056Z,91.46
2017-11-09T16:43:54.579Z,91.57
2017-11-09T16:46:20.671Z,91.97
2017-11-09T16:48:46.813Z,91.46
2017-11-09T16:51:12.975Z,90.58
2017-11-09T16:53:39.052Z,90.55
2017-11-09T16:56:05.481Z,90.33
2017-11-09T16:58:31.582Z,90.86
2017-11-09T17:00:57.662Z,91.74
2017-11-09T17:03:24.116Z,91.45
2017-11-09T17:05:50.237Z,91.12
2017-11-09T17:08:16.520Z,90.04
2017-11-09T17:10:43.041Z,89.84
2017-11-09T17:13:09.100Z,89.60
2017-11-09T17:15:35.218Z,89.78
2017-11-09T17:18:01.363Z,90.00
2017-11-09T17:20:27.471Z,89.85
2017-11-09T17:22:53.960Z,89.43
2017-11-09T17:25:20.106Z,89.71
2017-11-09T17:27:46.222Z,89.22
2017-11-09T17:30:12.324Z,89.75
2017-11-09T17:32:38.438Z,89.93
2017-11-09T17:35:06.071Z,89.39
2017-11-09T17:37:32.116Z,89.41
2017-11-09T17:39:58.265Z,89.50
2017-11-09T17:42:26.600Z,89.49
2017-11-09T17:44:52.782Z,90.10
2017-11-09T17:47:18.883Z,91.45
2017-11-09T17:49:44.980Z,92.19
2017-11-09T17:52:11.087Z,92.82
2017-11-09T17:54:37.630Z,93.33
2017-11-09T17:57:03.743Z,93.41
2017-11-09T17:59:29.855Z,93.08
2017-11-09T18:01:56.398Z,93.10
2017-11-09T18:04:22.433Z,93.14
2017-11-09T18:06:48.619Z,93.06
2017-11-09T18:09:15.118Z,93.34
2017-11-09T18:11:41.268Z,93.82
2017-11-09T18:14:07.355Z,93.71
2017-11-09T18:16:33.538Z,92.83
2017-11-09T18:18:59.704Z,91.67
2017-11-09T18:21:26.156Z,90.76
2017-11-09T18:23:55.120Z,90.44
2017-11-09T18:26:21.229Z,90.87
2017-11-09T18:28:47.397Z,90.70
2017-11-09T18:31:13.519Z,90.65
2017-11-09T18:33:40.035Z,90.73
2017-11-09T18:36:06.210Z,90.71
2017-11-09T18:38:32.360Z,91.09
2017-11-09T18:40:58.890Z,91.22
2017-11-09T18:43:25.000Z,91.50
2017-11-09T18:45:51.095Z,92.29
2017-11-09T18:48:17.184Z,92.61
2017-11-09T18:50:43.274Z,92.49
2017-11-09T18:53:10.101Z,92.16
2017-11-09T18:55:36.205Z,91.84
2017-11-09T18:58:02.340Z,91.82
2017-11-09T19:00:28.503Z,91.48
2017-11-09T19:02:54.605Z,91.49
2017-11-09T19:05:21.058Z,91.62
2017-11-09T19:07:47.207Z,91.69
2017-11-09T19:10:13.327Z,91.84
2017-11-09T19:12:39.541Z,91.74
2017-11-09T19:15:05.660Z,91.90
2017-11-09T19:17:32.217Z,92.15
2017-11-09T19:19:58.396Z,92.07
2017-11-09T19:22:24.591Z,92.22
2017-11-09T19:24:51.145Z,92.25
2017-11-09T19:27:17.456Z,92.21
2017-11-09T19:29:43.696Z,92.19
2017-11-09T19:32:10.231Z,92.28
2017-11-09T19:34:36.443Z,92.50
2017-11-09T19:37:02.676Z,92.65
2017-11-09T19:39:28.967Z,92.85
2017-11-09T19:41:55.228Z,93.07
2017-11-09T19:44:21.955Z,93.16
2017-11-09T19:46:48.336Z,93.15
2017-11-09T19:49:14.556Z,93.16
2017-11-09T19:51:41.263Z,93.27
2017-11-09T19:54:07.552Z,93.23
2017-11-09T19:56:34.651Z,93.02
2017-11-09T19:59:01.381Z,93.02
2017-11-09T20:01:27.765Z,93.21
2017-11-09T20:03:54.093Z,93.36
2017-11-09T20:06:20.340Z,93.40
2017-11-09T20:08:46.657Z,93.46
2017-11-09T20:11:13.321Z,93.33
2017-11-09T20:13:39.604Z,93.50
2017-11-09T20:16:05.928Z,93.44
2017-11-09T20:18:32.634Z,93.68
2017-11-09T20:20:58.888Z,93.54
2017-11-09T20:23:25.276Z,93.16
2017-11-09T20:25:52.426Z,93.32
2017-11-09T20:28:18.799Z,93.91
2017-11-09T20:30:45.446Z,94.32
2017-11-09T20:33:15.690Z,94.46
2017-11-09T20:35:41.900Z,94.25
2017-11-09T20:38:08.154Z,94.63
2017-11-09T20:40:34.397Z,94.78
2017-11-09T20:43:01.096Z,93.67
2017-11-09T20:45:27.278Z,93.05
2017-11-09T20:47:53.499Z,93.18
2017-11-09T20:50:21.001Z,93.21
2017-11-09T20:52:47.127Z,93.15
2017-11-09T20:55:13.282Z,92.80
2017-11-09T20:57:39.868Z,92.94
2017-11-09T21:00:06.080Z,92.91
2017-11-09T21:02:32.211Z,92.84
2017-11-09T21:04:58.314Z,93.15
2017-11-09T21:07:24.496Z,92.72
2017-11-09T21:09:50.999Z,92.79
2017-11-09T21:12:17.224Z,93.33
2017-11-09T21:14:43.363Z,93.24
2017-11-09T21:17:09.977Z,92.87
2017-11-09T21:19:36.056Z,92.79
2017-11-09T21:22:03.110Z,92.95
2017-11-09T21:24:29.248Z,93.02
2017-11-09T21:26:55.272Z,93.25
2017-11-09T21:29:21.396Z,93.45
2017-11-09T21:31:47.508Z,93.33
2017-11-09T21:34:13.597Z,93.01
2017-11-09T21:36:39.706Z,92.85
2017-11-09T21:39:06.153Z,92.75
2017-11-09T21:41:32.176Z,92.67
2017-11-09T21:43:58.268Z,92.70
2017-11-09T21:46:24.711Z,92.71
2017-11-09T21:48:50.788Z,92.82
2017-11-09T21:51:16.872Z,92.71
2017-11-09T21:53:43.319Z,92.81
2017-11-09T21:56:09.427Z,92.71
2017-11-09T21:58:35.526Z,92.70
2017-11-09T22:01:02.002Z,92.88
2017-11-09T22:03:28.081Z,93.03
2017-11-09T22:05:54.183Z,92.57
2017-11-09T22:08:20.707Z,92.59
2017-11-09T22:10:46.852Z,92.67
2017-11-09T22:13:12.944Z,92.78
2017-11-09T22:15:39.481Z,92.74
2017-11-09T22:18:05.517Z,92.53
2017-11-09T22:20:31.651Z,92.48
2017-11-09T22:22:58.191Z,92.80
2017-11-09T22:25:24.285Z,92.46
2017-11-09T22:27:50.344Z,92.41
2017-11-09T22:30:16.419Z,92.54
2017-11-09T22:32:42.522Z,92.71
2017-11-09T22:35:09.007Z,92.91
2017-11-09T22:37:35.104Z,92.95
2017-11-09T22:40:01.187Z,92.92
2017-11-09T22:42:27.707Z,93.18
2017-11-09T22:44:53.780Z,93.18
2017-11-09T22:47:19.931Z,93.25
2017-11-09T22:49:46.040Z,93.30
2017-11-09T22:52:12.143Z,93.22
2017-11-09T22:54:38.657Z,93.16
2017-11-09T22:57:04.731Z,93.07
2017-11-09T22:59:31.008Z,93.34
2017-11-09T23:01:57.431Z,93.31
2017-11-09T23:04:23.523Z,93.38
2017-11-09T23:06:49.591Z,93.30
2017-11-09T23:09:15.695Z,93.27
2017-11-09T23:11:41.818Z,93.26
2017-11-09T23:14:08.278Z,93.27
2017-11-09T23:16:34.310Z,93.23
2017-11-09T23:19:00.542Z,93.24
2017-11-09T23:21:26.705Z,93.26
2017-11-09T23:23:52.824Z,93.20
2017-11-09T23:26:19.236Z,93.15
2017-11-09T23:28:45.368Z,93.27
2017-11-09T23:31:11.437Z,93.36
2017-11-09T23:33:37.592Z,93.19
2017-11-09T23:36:03.736Z,93.09
2017-11-09T23:38:30.152Z,93.51
2017-11-09T23:40:56.229Z,93.29
2017-11-09T23:43:22.294Z,93.03
2017-11-09T23:45:48.408Z,92.98
2017-11-09T23:48:14.486Z,93.12
2017-11-09T23:50:41.027Z,92.95
2017-11-09T23:53:07.087Z,92.91
2017-11-09T23:55:33.207Z,92.79
2017-11-09T23:57:59.335Z,92.69
